createdAt,value
2022-12-18T00:01:27.169Z,5.60
2022-12-18T00:04:19.897Z,7.72
2022-12-18T00:07:06.986Z,4.50
2022-12-18T00:09:55.159Z,8.13
2022-12-18T00:12:42.125Z,4.10
2022-12-18T00:15:28.868Z,3.55
2022-12-18T00:18:18.918Z,3.88
2022-12-18T00:21:08.675Z,5.20
2022-12-18T00:23:55.617Z,6.43
2022-12-18T00:26:44.172Z,4.13
2022-12-18T00:29:31.335Z,5.97
2022-12-18T00:32:18.279Z,3.03
2022-12-18T00:35:05.534Z,5.18
2022-12-18T00:37:53.199Z,5.35
2022-12-18T00:40:40.223Z,4.50
2022-12-18T00:43:27.616Z,5.53
2022-12-18T00:46:14.567Z,7.15
2022-12-18T00:49:01.934Z,4.80
2022-12-18T00:51:48.948Z,6.28
2022-12-18T00:54:36.042Z,6.95
2022-12-18T00:57:22.976Z,8.10
2022-12-18T01:00:12.668Z,6.05
2022-12-18T01:02:59.886Z,6.22
2022-12-18T01:05:47.016Z,3.97
2022-12-18T01:08:33.898Z,8.45
2022-12-18T01:11:21.579Z,6.35
2022-12-18T01:14:08.739Z,9.27
2022-12-18T01:16:59.800Z,9.57
2022-12-18T01:19:48.976Z,4.72
2022-12-18T01:22:37.256Z,5.50
2022-12-18T01:25:26.943Z,7.00
2022-12-18T01:28:16.277Z,6.68
2022-12-18T01:31:17.008Z,3.92
2022-12-18T01:34:08.312Z,6.90
2022-12-18T01:36:57.608Z,4.75
2022-12-18T01:39:46.798Z,5.85
2022-12-18T01:42:35.090Z,5.63
2022-12-18T01:45:28.358Z,3.60
2022-12-18T01:48:16.500Z,7.75
2022-12-18T01:51:08.031Z,8.75
2022-12-18T01:53:57.439Z,5.75
2022-12-18T01:56:44.928Z,7.07
2022-12-18T01:59:34.892Z,5.57
2022-12-18T02:02:24.706Z,5.18
2022-12-18T02:05:14.650Z,6.05
2022-12-18T02:08:09.423Z,5.28
2022-12-18T02:11:02.789Z,5.05
2022-12-18T02:13:55.299Z,7.47
2022-12-18T02:16:47.463Z,7.05
2022-12-18T02:19:42.955Z,4.75
2022-12-18T02:22:37.220Z,10.18
2022-12-18T02:25:32.559Z,5.43
2022-12-18T02:28:21.581Z,5.05
2022-12-18T02:31:10.095Z,10.70
2022-12-18T02:33:58.600Z,6.07
2022-12-18T02:36:46.793Z,7.68
2022-12-18T02:39:36.255Z,4.63
2022-12-18T02:42:23.817Z,5.82
2022-12-18T02:45:12.602Z,3.78
2022-12-18T02:47:59.577Z,6.10
2022-12-18T02:50:51.466Z,4.78
2022-12-18T02:53:41.732Z,6.82
2022-12-18T02:56:30.549Z,6.57
2022-12-18T02:59:19.906Z,3.92
2022-12-18T03:02:14.967Z,5.72
2022-12-18T03:05:04.022Z,6.10
2022-12-18T03:07:52.574Z,6.85
2022-12-18T03:10:43.121Z,5.05
2022-12-18T03:13:34.744Z,5.88
2022-12-18T03:16:24.868Z,5.50
2022-12-18T03:19:16.027Z,5.18
2022-12-18T03:22:04.616Z,5.65
2022-12-18T03:24:51.771Z,5.30
2022-12-18T03:27:40.158Z,6.28
2022-12-18T03:30:28.735Z,8.52
2022-12-18T03:33:20.653Z,6.68
2022-12-18T03:36:09.288Z,6.57
2022-12-18T03:38:56.190Z,4.63
2022-12-18T03:41:45.358Z,4.25
2022-12-18T03:44:37.594Z,6.22
2022-12-18T03:47:27.419Z,5.32
2022-12-18T03:50:16.886Z,6.15
2022-12-18T03:53:08.707Z,6.40
2022-12-18T03:55:55.974Z,4.13
2022-12-18T03:58:44.177Z,9.02
2022-12-18T04:01:33.495Z,7.78
2022-12-18T04:04:21.092Z,5.47
2022-12-18T04:07:08.710Z,5.40
2022-12-18T04:09:58.419Z,3.30
2022-12-18T04:12:45.551Z,3.88
2022-12-18T04:15:33.914Z,5.80
2022-12-18T04:18:21.220Z,3.75
2022-12-18T04:21:08.151Z,2.80
2022-12-18T04:23:55.127Z,4.60
2022-12-18T04:26:43.495Z,3.63
2022-12-18T04:29:30.793Z,7.65
2022-12-18T04:32:17.707Z,4.97
2022-12-18T04:35:07.694Z,4.88
2022-12-18T04:37:54.724Z,3.40
2022-12-18T04:40:41.885Z,4.45
2022-12-18T04:43:31.016Z,4.60
2022-12-18T04:46:17.932Z,3.45
2022-12-18T04:49:04.733Z,5.35
2022-12-18T04:51:51.576Z,6.75
2022-12-18T04:54:38.436Z,5.97
2022-12-18T04:57:25.351Z,5.32
2022-12-18T05:00:14.264Z,4.10
2022-12-18T05:03:02.774Z,4.30
2022-12-18T05:05:51.392Z,6.93
2022-12-18T05:08:38.958Z,6.03
2022-12-18T05:11:26.244Z,3.47
2022-12-18T05:14:12.976Z,4.90
2022-12-18T05:17:01.509Z,4.80
2022-12-18T05:19:48.775Z,7.88
2022-12-18T05:22:35.704Z,4.47
2022-12-18T05:25:22.904Z,6.22
2022-12-18T05:28:09.929Z,6.57
2022-12-18T05:30:58.066Z,9.68
2022-12-18T05:33:46.327Z,6.63
2022-12-18T05:36:33.543Z,4.80
2022-12-18T05:39:20.864Z,5.45
2022-12-18T05:42:08.087Z,3.95
2022-12-18T05:44:54.936Z,4.50
2022-12-18T05:47:42.077Z,6.30
2022-12-18T05:50:30.701Z,9.88
2022-12-18T05:53:18.200Z,3.83
2022-12-18T05:56:06.370Z,4.93
2022-12-18T05:58:53.887Z,5.18
2022-12-18T06:01:40.996Z,4.90
2022-12-18T06:04:28.965Z,5.10
2022-12-18T06:07:17.506Z,4.30
2022-12-18T06:10:05.386Z,3.95
2022-12-18T06:12:52.445Z,5.65
2022-12-18T06:15:39.268Z,7.28
2022-12-18T06:18:26.132Z,7.07
2022-12-18T06:21:13.079Z,9.52
2022-12-18T06:24:01.753Z,6.13
2022-12-18T06:26:48.849Z,3.90
2022-12-18T06:29:35.842Z,5.60
2022-12-18T06:32:22.858Z,4.63
2022-12-18T06:35:10.004Z,9.13
2022-12-18T06:37:57.362Z,5.18
2022-12-18T06:40:45.632Z,9.20
2022-12-18T06:43:33.157Z,4.90
2022-12-18T06:46:20.352Z,8.73
2022-12-18T06:49:07.915Z,4.10
2022-12-18T06:51:54.832Z,7.55
2022-12-18T06:54:41.700Z,4.90
2022-12-18T06:57:30.054Z,8.18
2022-12-18T07:00:17.566Z,8.75
2022-12-18T07:03:04.711Z,6.22
2022-12-18T07:05:51.841Z,6.10
2022-12-18T07:08:38.927Z,5.95
2022-12-18T07:11:26.100Z,7.63
2022-12-18T07:14:14.327Z,6.32
2022-12-18T07:17:01.657Z,9.18
2022-12-18T07:19:48.990Z,7.82
2022-12-18T07:22:35.752Z,8.38
2022-12-18T07:25:22.712Z,8.07
2022-12-18T07:28:14.231Z,9.23
2022-12-18T07:31:07.061Z,4.25
2022-12-18T07:33:54.091Z,6.68
2022-12-18T07:36:41.320Z,7.57
2022-12-18T07:39:28.325Z,6.72
2022-12-18T07:42:33.521Z,11.25
2022-12-18T07:45:20.482Z,5.47
2022-12-18T07:48:08.839Z,8.07
2022-12-18T07:50:56.039Z,6.10
2022-12-18T07:53:43.478Z,7.82
2022-12-18T07:56:31.572Z,8.48
2022-12-18T07:59:18.734Z,11.18
2022-12-18T08:02:06.102Z,6.25
2022-12-18T08:04:55.243Z,7.28
2022-12-18T08:07:42.340Z,6.60
2022-12-18T08:10:31.679Z,9.13
2022-12-18T08:13:18.575Z,8.35
2022-12-18T08:16:06.925Z,7.95
2022-12-18T08:18:54.331Z,5.07
2022-12-18T08:21:45.782Z,6.50
2022-12-18T08:24:32.874Z,7.60
2022-12-18T08:27:35.218Z,8.18
2022-12-18T08:30:22.339Z,3.92
2022-12-18T08:33:09.673Z,8.88
2022-12-18T08:35:56.701Z,6.35
2022-12-18T08:38:45.008Z,9.68
2022-12-18T08:41:32.254Z,7.00
2022-12-18T08:44:37.115Z,7.07
2022-12-18T08:50:12.229Z,6.07
2022-12-18T08:52:59.400Z,5.30
2022-12-18T08:55:50.337Z,7.50
2022-12-18T08:58:37.487Z,4.97
2022-12-18T09:01:24.827Z,7.30
2022-12-18T09:04:12.197Z,8.02
2022-12-18T09:06:59.422Z,3.85
2022-12-18T09:09:46.363Z,7.22
2022-12-18T09:12:34.751Z,10.02
2022-12-18T09:15:21.665Z,9.35
2022-12-18T09:18:09.843Z,6.60
2022-12-18T09:20:57.013Z,3.25
2022-12-18T09:23:45.028Z,7.45
2022-12-18T09:26:32.602Z,3.03
2022-12-18T09:29:21.179Z,5.65
2022-12-18T09:32:08.449Z,3.22
2022-12-18T09:34:55.505Z,6.20
2022-12-18T09:37:43.460Z,8.82
2022-12-18T09:40:36.326Z,7.63
2022-12-18T09:43:28.676Z,5.95
2022-12-18T09:46:20.064Z,3.47
2022-12-18T09:49:09.873Z,4.60
2022-12-18T09:51:59.097Z,4.88
2022-12-18T09:54:47.680Z,3.95
2022-12-18T09:57:35.384Z,8.48
2022-12-18T10:00:23.332Z,6.95
2022-12-18T10:03:13.689Z,5.15
2022-12-18T10:06:03.973Z,4.80
2022-12-18T10:08:53.651Z,6.43
2022-12-18T10:11:45.419Z,5.00
2022-12-18T10:14:35.931Z,8.35
2022-12-18T10:17:27.442Z,5.45
2022-12-18T10:20:20.731Z,5.70
2022-12-18T10:23:14.913Z,6.30
2022-12-18T10:26:04.133Z,6.53
2022-12-18T10:28:51.699Z,6.65
2022-12-18T10:31:39.504Z,7.82
2022-12-18T10:34:26.759Z,9.20
2022-12-18T10:37:17.772Z,4.78
2022-12-18T10:40:09.369Z,7.60
2022-12-18T10:43:05.194Z,7.80
2022-12-18T10:46:03.853Z,6.63
2022-12-18T10:48:55.349Z,9.45
2022-12-18T10:51:42.086Z,10.35
2022-12-18T10:54:31.877Z,6.75
2022-12-18T10:57:20.276Z,5.78
2022-12-18T11:00:27.315Z,7.88
2022-12-18T11:03:31.863Z,7.60
2022-12-18T11:09:13.112Z,9.55
2022-12-18T11:12:04.028Z,10.20
2022-12-18T11:14:52.717Z,10.60
2022-12-18T11:17:40.183Z,14.60
2022-12-18T11:20:31.272Z,11.55
2022-12-18T11:23:18.498Z,10.10
2022-12-18T11:26:07.165Z,8.38
2022-12-18T11:29:10.002Z,11.48
2022-12-18T11:32:14.875Z,9.55
2022-12-18T11:35:05.430Z,5.90
2022-12-18T11:37:58.571Z,13.60
2022-12-18T11:40:49.684Z,18.90
2022-12-18T11:43:40.173Z,12.15
2022-12-18T11:46:33.121Z,16.90
2022-12-18T11:49:23.676Z,20.15
2022-12-18T11:52:14.099Z,15.15
2022-12-18T11:55:03.488Z,12.73
2022-12-18T11:57:54.660Z,10.45
2022-12-18T12:00:46.976Z,17.60
2022-12-18T12:03:49.716Z,17.17
2022-12-18T12:06:42.256Z,14.65
2022-12-18T12:09:33.738Z,15.15
2022-12-18T12:12:48.729Z,15.82
2022-12-18T12:15:47.117Z,12.02
2022-12-18T12:18:49.728Z,13.43
2022-12-18T12:21:42.518Z,12.27
2022-12-18T12:24:39.447Z,15.80
2022-12-18T12:27:37.078Z,18.58
2022-12-18T12:30:33.229Z,16.33
2022-12-18T12:33:25.524Z,12.45
2022-12-18T12:36:22.832Z,17.05
2022-12-18T12:39:16.406Z,14.65
2022-12-18T12:42:23.567Z,11.70
2022-12-18T12:45:18.799Z,10.73
2022-12-18T12:48:16.306Z,13.85
2022-12-18T12:51:11.606Z,20.30
2022-12-18T12:54:03.985Z,9.52
2022-12-18T12:56:59.987Z,13.80
2022-12-18T12:59:49.840Z,20.05
2022-12-18T13:02:41.584Z,15.55
2022-12-18T13:05:37.300Z,11.68
2022-12-18T13:08:27.365Z,16.05
2022-12-18T13:11:52.560Z,17.85
2022-12-18T13:14:43.905Z,8.82
2022-12-18T13:17:33.535Z,23.83
2022-12-18T13:20:20.897Z,21.90
2022-12-18T13:23:28.993Z,25.60
2022-12-18T13:26:35.516Z,7.97
2022-12-18T13:29:44.151Z,12.70
2022-12-18T13:32:32.323Z,17.27
2022-12-18T13:35:43.407Z,15.45
2022-12-18T13:38:37.442Z,24.48
2022-12-18T13:41:26.687Z,24.00
2022-12-18T13:44:26.970Z,19.45
2022-12-18T13:47:30.385Z,21.15
2022-12-18T13:50:30.972Z,27.98
2022-12-18T13:53:26.970Z,21.73
2022-12-18T13:56:24.000Z,8.90
2022-12-18T13:59:23.260Z,30.63
2022-12-18T14:02:17.052Z,22.55
2022-12-18T14:05:05.686Z,20.50
2022-12-18T14:07:55.682Z,26.73
2022-12-18T14:10:48.547Z,19.83
2022-12-18T14:13:38.859Z,23.00
2022-12-18T14:16:27.574Z,18.90
2022-12-18T14:19:17.920Z,29.20
2022-12-18T14:22:05.657Z,20.17
2022-12-18T14:25:16.102Z,20.95
2022-12-18T14:28:14.071Z,23.75
2022-12-18T14:31:01.617Z,22.42
2022-12-18T14:33:50.666Z,18.15
2022-12-18T14:36:40.912Z,16.48
2022-12-18T14:39:28.332Z,18.88
2022-12-18T14:42:15.299Z,17.63
2022-12-18T14:45:40.975Z,26.75
2022-12-18T14:48:38.032Z,19.88
2022-12-18T14:51:30.095Z,23.20
2022-12-18T14:54:18.416Z,20.92
2022-12-18T14:57:06.540Z,25.77
2022-12-18T14:59:53.643Z,24.42
2022-12-18T15:02:42.057Z,22.15
2022-12-18T15:05:30.779Z,22.50
2022-12-18T15:08:33.200Z,17.30
2022-12-18T15:11:27.939Z,18.83
2022-12-18T15:14:25.006Z,17.00
2022-12-18T15:17:18.517Z,18.48
2022-12-18T15:20:11.266Z,22.90
2022-12-18T15:22:58.488Z,19.98
2022-12-18T15:25:47.784Z,16.48
2022-12-18T15:28:37.452Z,23.80
2022-12-18T15:31:27.161Z,19.73
2022-12-18T15:34:15.452Z,19.13
2022-12-18T15:37:02.517Z,22.73
2022-12-18T15:39:49.416Z,19.00
2022-12-18T15:42:55.066Z,28.02
2022-12-18T15:45:42.041Z,21.42
2022-12-18T15:48:29.079Z,23.42
2022-12-18T15:51:18.151Z,26.50
2022-12-18T15:54:06.223Z,28.02
2022-12-18T15:57:06.921Z,29.75
2022-12-18T15:59:57.520Z,25.05
2022-12-18T16:02:45.194Z,20.27
2022-12-18T16:05:33.011Z,24.98
2022-12-18T16:08:20.248Z,19.23
2022-12-18T16:11:10.941Z,24.23
2022-12-18T16:13:58.527Z,18.45
2022-12-18T16:16:49.790Z,17.10
2022-12-18T16:19:37.364Z,10.38
2022-12-18T16:22:26.659Z,29.80
2022-12-18T16:25:18.489Z,21.77
2022-12-18T16:28:05.427Z,27.88
2022-12-18T16:30:52.951Z,30.55
2022-12-18T16:33:41.984Z,17.45
2022-12-18T16:36:29.242Z,24.05
2022-12-18T16:39:16.354Z,22.63
2022-12-18T16:42:05.874Z,22.08
2022-12-18T16:44:53.266Z,26.63
2022-12-18T16:47:40.256Z,21.08
2022-12-18T16:50:28.723Z,25.27
2022-12-18T16:53:15.573Z,22.80
2022-12-18T16:56:02.440Z,31.73
2022-12-18T16:58:51.740Z,10.77
2022-12-18T17:01:38.933Z,27.75
2022-12-18T17:04:26.274Z,26.33
2022-12-18T17:07:14.728Z,22.50
2022-12-18T17:10:01.806Z,23.88
2022-12-18T17:12:48.783Z,27.30
2022-12-18T17:15:36.643Z,25.50
2022-12-18T17:18:23.445Z,23.38
2022-12-18T17:21:10.463Z,16.27
2022-12-18T17:24:00.516Z,16.88
2022-12-18T17:26:48.248Z,13.75
2022-12-18T17:29:38.271Z,26.00
2022-12-18T17:32:26.921Z,13.75
2022-12-18T17:35:14.073Z,25.30
2022-12-18T17:38:01.391Z,23.60
2022-12-18T17:40:49.637Z,24.67
2022-12-18T17:43:45.599Z,21.40
2022-12-18T17:46:34.066Z,25.60
2022-12-18T17:49:21.607Z,29.05
2022-12-18T17:52:08.871Z,38.05
2022-12-18T17:54:55.994Z,29.10
2022-12-18T17:57:44.260Z,19.60
2022-12-18T18:00:30.978Z,27.02
2022-12-18T18:03:17.996Z,24.95
2022-12-18T18:06:05.812Z,28.98
2022-12-18T18:08:54.729Z,18.17
2022-12-18T18:11:59.643Z,30.25
2022-12-18T18:14:47.943Z,21.42
2022-12-18T18:17:35.317Z,26.27
2022-12-18T18:20:22.920Z,33.03
2022-12-18T18:23:10.297Z,32.05
2022-12-18T18:25:57.307Z,27.33
2022-12-18T18:28:44.484Z,28.10
2022-12-18T18:31:41.031Z,23.55
2022-12-18T18:34:30.885Z,24.50
2022-12-18T18:37:18.949Z,34.75
2022-12-18T18:40:06.611Z,37.33
2022-12-18T18:42:53.704Z,28.75
2022-12-18T18:45:41.036Z,28.70
2022-12-18T18:48:33.134Z,29.67
2022-12-18T18:51:22.623Z,30.25
2022-12-18T18:54:10.082Z,33.55
2022-12-18T18:57:19.845Z,19.55
2022-12-18T19:00:04.866Z,26.58
2022-12-18T19:02:54.108Z,24.40
2022-12-18T19:05:51.713Z,28.73
2022-12-18T19:08:40.007Z,39.17
2022-12-18T19:11:45.647Z,28.20
2022-12-18T19:14:32.977Z,38.85
2022-12-18T19:17:21.764Z,35.85
2022-12-18T19:20:12.160Z,21.38
2022-12-18T19:23:00.977Z,37.15
2022-12-18T19:25:50.677Z,28.25
2022-12-18T19:28:37.802Z,35.92
2022-12-18T19:31:29.171Z,26.40
2022-12-18T19:34:19.170Z,25.88
2022-12-18T19:37:06.672Z,36.50
2022-12-18T19:39:56.653Z,24.75
2022-12-18T19:42:44.048Z,40.58
2022-12-18T19:45:33.595Z,31.58
2022-12-18T19:48:20.990Z,26.58
2022-12-18T19:51:10.375Z,33.75
2022-12-18T19:54:01.420Z,26.85
2022-12-18T19:56:52.868Z,26.88
2022-12-18T19:59:40.833Z,27.88
2022-12-18T20:02:29.060Z,36.17
2022-12-18T20:05:17.200Z,39.75
2022-12-18T20:08:04.558Z,35.65
2022-12-18T20:10:51.863Z,39.78
2022-12-18T20:13:40.966Z,37.45
2022-12-18T20:16:28.958Z,28.13
2022-12-18T20:19:16.868Z,33.05
2022-12-18T20:22:04.885Z,22.85
2022-12-18T20:24:52.235Z,27.65
2022-12-18T20:27:39.249Z,42.15
2022-12-18T20:30:27.525Z,27.83
2022-12-18T20:33:14.470Z,24.48
2022-12-18T20:36:02.402Z,36.30
2022-12-18T20:38:50.875Z,35.90
2022-12-18T20:41:39.211Z,36.15
2022-12-18T20:44:26.176Z,33.25
2022-12-18T20:47:14.457Z,33.97
2022-12-18T20:50:02.019Z,26.50
2022-12-18T20:52:49.523Z,24.45
2022-12-18T20:55:36.744Z,29.63
2022-12-18T20:58:23.595Z,41.50
2022-12-18T21:01:11.999Z,25.45
2022-12-18T21:04:00.787Z,36.47
2022-12-18T21:06:52.902Z,30.52
2022-12-18T21:09:43.117Z,33.83
2022-12-18T21:12:40.521Z,26.58
2022-12-18T21:15:30.928Z,32.45
2022-12-18T21:18:18.212Z,38.90
2022-12-18T21:21:06.681Z,36.95
2022-12-18T21:23:53.806Z,49.58
2022-12-18T21:26:46.349Z,46.30
2022-12-18T21:29:34.931Z,40.33
2022-12-18T21:32:22.246Z,36.65
2022-12-18T21:35:11.932Z,30.33
2022-12-18T21:38:00.241Z,45.58
2022-12-18T21:40:50.078Z,34.70
2022-12-18T21:43:55.694Z,36.80
2022-12-18T21:46:44.265Z,36.90
2022-12-18T21:49:31.431Z,23.88
2022-12-18T21:52:18.462Z,22.00
2022-12-18T21:55:09.947Z,30.05
2022-12-18T21:57:57.545Z,49.90
2022-12-18T22:00:48.568Z,49.13
2022-12-18T22:03:36.113Z,37.90
2022-12-18T22:06:23.319Z,40.42
2022-12-18T22:09:10.595Z,34.00
2022-12-18T22:11:59.276Z,38.50
2022-12-18T22:14:46.432Z,37.10
2022-12-18T22:17:33.224Z,51.88
2022-12-18T22:20:20.465Z,43.03
2022-12-18T22:23:07.621Z,36.42
2022-12-18T22:25:54.519Z,37.42
2022-12-18T22:29:00.357Z,48.55
2022-12-18T22:31:47.680Z,48.47
2022-12-18T22:34:36.870Z,39.42
2022-12-18T22:37:23.950Z,43.70
2022-12-18T22:40:13.028Z,26.88
2022-12-18T22:43:01.409Z,36.88
2022-12-18T22:45:49.859Z,38.25
2022-12-18T22:48:36.717Z,49.83
2022-12-18T22:51:23.894Z,33.55
2022-12-18T22:54:11.421Z,49.35
2022-12-18T22:56:58.680Z,44.45
2022-12-18T22:59:45.541Z,53.50
2022-12-18T23:02:34.013Z,51.17
2022-12-18T23:05:21.428Z,48.08
2022-12-18T23:08:08.181Z,56.25
2022-12-18T23:10:55.120Z,35.72
2022-12-18T23:13:42.178Z,50.17
2022-12-18T23:16:29.408Z,54.20
2022-12-18T23:19:18.015Z,42.10
2022-12-18T23:22:11.380Z,47.22
2022-12-18T23:24:58.683Z,40.35
2022-12-18T23:27:45.859Z,57.30
2022-12-18T23:30:33.387Z,59.10
2022-12-18T23:33:20.500Z,52.28
2022-12-18T23:36:09.483Z,45.60
2022-12-18T23:38:57.400Z,55.88
2022-12-18T23:41:44.371Z,59.63
2022-12-18T23:44:31.623Z,46.10
2022-12-18T23:47:18.803Z,65.15
2022-12-18T23:50:06.556Z,50.38
2022-12-18T23:53:02.130Z,66.15
2022-12-18T23:55:52.660Z,38.25
2022-12-18T23:58:41.027Z,50.33
